sensor_id;sensor_type;location;lat;lon;timestamp;temperature;humidity
29363;DHT22;16349;53.672;10.014;2022-09-25T00:01:42;13.10;99.90
29363;DHT22;16349;53.672;10.014;2022-09-25T00:04:08;13.10;99.90
29363;DHT22;16349;53.672;10.014;2022-09-25T00:06:36;13.00;99.90
29363;DHT22;16349;53.672;10.014;2022-09-25T00:09:04;13.00;99.90
29363;DHT22;16349;53.672;10.014;2022-09-25T00:11:34;12.90;99.90
29363;DHT22;16349;53.672;10.014;2022-09-25T00:14:01;13.00;99.90
29363;DHT22;16349;53.672;10.014;2022-09-25T00:16:30;12.90;99.90
29363;DHT22;16349;53.672;10.014;2022-09-25T00:18:57;12.90;99.90
29363;DHT22;16349;53.672;10.014;2022-09-25T00:21:44;12.90;99.90
29363;DHT22;16349;53.672;10.014;2022-09-25T00:24:15;12.90;99.90
29363;DHT22;16349;53.672;10.014;2022-09-25T00:26:44;12.90;99.90
29363;DHT22;16349;53.672;10.014;2022-09-25T00:29:14;12.90;99.90
29363;DHT22;16349;53.672;10.014;2022-09-25T00:31:41;12.90;99.90
29363;DHT22;16349;53.672;10.014;2022-09-25T00:34:09;13.00;99.90
29363;DHT22;16349;53.672;10.014;2022-09-25T00:36:36;13.00;99.90
29363;DHT22;16349;53.672;10.014;2022-09-25T00:39:03;13.00;99.90
29363;DHT22;16349;53.672;10.014;2022-09-25T00:41:30;13.00;99.90
29363;DHT22;16349;53.672;10.014;2022-09-25T00:44:01;13.00;99.90
29363;DHT22;16349;53.672;10.014;2022-09-25T00:46:29;13.00;99.90
29363;DHT22;16349;53.672;10.014;2022-09-25T00:49:00;13.00;99.90
29363;DHT22;16349;53.672;10.014;2022-09-25T00:51:29;13.00;99.90
29363;DHT22;16349;53.672;10.014;2022-09-25T00:54:03;13.00;99.90
29363;DHT22;16349;53.672;10.014;2022-09-25T00:56:35;13.00;99.90
29363;DHT22;16349;53.672;10.014;2022-09-25T01:01:33;13.10;99.90
29363;DHT22;16349;53.672;10.014;2022-09-25T01:04:00;13.00;99.90
29363;DHT22;16349;53.672;10.014;2022-09-25T01:06:27;13.00;99.90
29363;DHT22;16349;53.672;10.014;2022-09-25T01:08:55;13.00;99.90
29363;DHT22;16349;53.672;10.014;2022-09-25T01:11:23;13.00;99.90
29363;DHT22;16349;53.672;10.014;2022-09-25T01:13:53;13.00;99.90
29363;DHT22;16349;53.672;10.014;2022-09-25T01:16:29;13.00;99.90
29363;DHT22;16349;53.672;10.014;2022-09-25T01:19:11;13.00;99.90
29363;DHT22;16349;53.672;10.014;2022-09-25T01:21:43;13.00;99.90
29363;DHT22;16349;53.672;10.014;2022-09-25T01:24:39;13.00;99.90
29363;DHT22;16349;53.672;10.014;2022-09-25T01:27:24;13.00;99.90
29363;DHT22;16349;53.672;10.014;2022-09-25T01:30:01;13.00;99.90
29363;DHT22;16349;53.672;10.014;2022-09-25T01:32:35;12.90;99.90
29363;DHT22;16349;53.672;10.014;2022-09-25T01:35:07;12.90;99.90
29363;DHT22;16349;53.672;10.014;2022-09-25T01:37:41;12.90;99.90
29363;DHT22;16349;53.672;10.014;2022-09-25T01:40:13;12.90;99.90
29363;DHT22;16349;53.672;10.014;2022-09-25T01:42:46;13.00;99.90
29363;DHT22;16349;53.672;10.014;2022-09-25T01:45:19;13.00;99.90
29363;DHT22;16349;53.672;10.014;2022-09-25T01:47:48;13.00;99.90
29363;DHT22;16349;53.672;10.014;2022-09-25T01:50:19;13.00;99.90
29363;DHT22;16349;53.672;10.014;2022-09-25T01:52:52;13.00;99.90
29363;DHT22;16349;53.672;10.014;2022-09-25T01:55:25;13.00;99.90
29363;DHT22;16349;53.672;10.014;2022-09-25T01:57:58;13.00;99.90
29363;DHT22;16349;53.672;10.014;2022-09-25T02:00:30;13.00;99.90
29363;DHT22;16349;53.672;10.014;2022-09-25T02:03:04;13.00;99.90
29363;DHT22;16349;53.672;10.014;2022-09-25T02:05:35;13.00;99.90
29363;DHT22;16349;53.672;10.014;2022-09-25T02:08:09;13.00;99.90
29363;DHT22;16349;53.672;10.014;2022-09-25T02:10:42;13.00;99.90
29363;DHT22;16349;53.672;10.014;2022-09-25T02:13:13;13.00;99.90
29363;DHT22;16349;53.672;10.014;2022-09-25T02:15:45;13.00;99.90
29363;DHT22;16349;53.672;10.014;2022-09-25T02:18:17;13.00;99.90
29363;DHT22;16349;53.672;10.014;2022-09-25T02:21:11;13.00;99.90
29363;DHT22;16349;53.672;10.014;2022-09-25T02:23:46;13.00;99.90
29363;DHT22;16349;53.672;10.014;2022-09-25T02:26:19;13.00;99.90
29363;DHT22;16349;53.672;10.014;2022-09-25T02:28:48;13.00;99.90
29363;DHT22;16349;53.672;10.014;2022-09-25T02:31:21;13.00;99.90
29363;DHT22;16349;53.672;10.014;2022-09-25T02:33:51;13.00;99.90
29363;DHT22;16349;53.672;10.014;2022-09-25T02:36:20;13.00;99.90
29363;DHT22;16349;53.672;10.014;2022-09-25T02:38:50;13.00;99.90
29363;DHT22;16349;53.672;10.014;2022-09-25T02:41:26;13.00;99.90
29363;DHT22;16349;53.672;10.014;2022-09-25T02:44:05;13.10;99.90
29363;DHT22;16349;53.672;10.014;2022-09-25T02:46:41;13.00;99.90
29363;DHT22;16349;53.672;10.014;2022-09-25T02:49:18;13.00;99.90
29363;DHT22;16349;53.672;10.014;2022-09-25T02:51:51;13.00;99.90
29363;DHT22;16349;53.672;10.014;2022-09-25T02:54:24;13.00;99.90
29363;DHT22;16349;53.672;10.014;2022-09-25T02:56:56;13.00;99.90
29363;DHT22;16349;53.672;10.014;2022-09-25T02:59:32;13.00;99.90
29363;DHT22;16349;53.672;10.014;2022-09-25T03:02:02;13.00;99.90
29363;DHT22;16349;53.672;10.014;2022-09-25T03:04:30;13.00;99.90
29363;DHT22;16349;53.672;10.014;2022-09-25T03:07:00;13.00;99.90
29363;DHT22;16349;53.672;10.014;2022-09-25T03:09:28;13.00;99.90
29363;DHT22;16349;53.672;10.014;2022-09-25T03:11:57;13.00;99.90
29363;DHT22;16349;53.672;10.014;2022-09-25T03:14:26;13.00;99.90
29363;DHT22;16349;53.672;10.014;2022-09-25T03:16:55;13.00;99.90
29363;DHT22;16349;53.672;10.014;2022-09-25T03:19:24;13.00;99.90
29363;DHT22;16349;53.672;10.014;2022-09-25T03:21:52;13.00;99.90
29363;DHT22;16349;53.672;10.014;2022-09-25T03:24:19;12.90;99.90
29363;DHT22;16349;53.672;10.014;2022-09-25T03:26:46;12.90;99.90
29363;DHT22;16349;53.672;10.014;2022-09-25T03:29:13;12.90;99.90
29363;DHT22;16349;53.672;10.014;2022-09-25T03:31:42;12.90;99.90
29363;DHT22;16349;53.672;10.014;2022-09-25T03:34:11;12.90;99.90
29363;DHT22;16349;53.672;10.014;2022-09-25T03:36:40;12.90;99.90
29363;DHT22;16349;53.672;10.014;2022-09-25T03:39:07;12.90;99.90
29363;DHT22;16349;53.672;10.014;2022-09-25T03:41:35;13.00;99.90
29363;DHT22;16349;53.672;10.014;2022-09-25T03:44:03;12.90;99.90
29363;DHT22;16349;53.672;10.014;2022-09-25T03:46:31;12.90;99.90
29363;DHT22;16349;53.672;10.014;2022-09-25T03:48:59;12.90;99.90
29363;DHT22;16349;53.672;10.014;2022-09-25T03:51:28;12.90;99.90
29363;DHT22;16349;53.672;10.014;2022-09-25T03:53:57;13.00;99.90
29363;DHT22;16349;53.672;10.014;2022-09-25T03:56:25;12.90;99.90
29363;DHT22;16349;53.672;10.014;2022-09-25T03:58:54;12.90;99.90
29363;DHT22;16349;53.672;10.014;2022-09-25T04:01:22;12.90;99.90
29363;DHT22;16349;53.672;10.014;2022-09-25T04:03:49;12.90;99.90
29363;DHT22;16349;53.672;10.014;2022-09-25T04:06:18;13.00;99.90
29363;DHT22;16349;53.672;10.014;2022-09-25T04:08:46;13.00;99.90
29363;DHT22;16349;53.672;10.014;2022-09-25T04:11:15;13.00;99.90
29363;DHT22;16349;53.672;10.014;2022-09-25T04:13:43;13.00;99.90
29363;DHT22;16349;53.672;10.014;2022-09-25T04:16:11;13.00;99.90
29363;DHT22;16349;53.672;10.014;2022-09-25T04:18:39;13.00;99.90
29363;DHT22;16349;53.672;10.014;2022-09-25T04:21:09;12.90;99.90
29363;DHT22;16349;53.672;10.014;2022-09-25T04:23:37;12.90;99.90
29363;DHT22;16349;53.672;10.014;2022-09-25T04:26:05;12.90;99.90
29363;DHT22;16349;53.672;10.014;2022-09-25T04:28:33;12.90;99.90
29363;DHT22;16349;53.672;10.014;2022-09-25T04:31:01;12.90;99.90
29363;DHT22;16349;53.672;10.014;2022-09-25T04:33:28;13.00;99.90
29363;DHT22;16349;53.672;10.014;2022-09-25T04:36:13;13.00;99.90
29363;DHT22;16349;53.672;10.014;2022-09-25T04:38:40;13.00;99.90
29363;DHT22;16349;53.672;10.014;2022-09-25T04:41:07;13.00;99.90
29363;DHT22;16349;53.672;10.014;2022-09-25T04:43:35;13.00;99.90
29363;DHT22;16349;53.672;10.014;2022-09-25T04:46:03;13.00;99.90
29363;DHT22;16349;53.672;10.014;2022-09-25T04:48:31;13.00;99.90
29363;DHT22;16349;53.672;10.014;2022-09-25T04:50:58;12.90;99.90
29363;DHT22;16349;53.672;10.014;2022-09-25T04:53:26;12.90;99.90
29363;DHT22;16349;53.672;10.014;2022-09-25T04:55:54;12.90;99.90
29363;DHT22;16349;53.672;10.014;2022-09-25T04:58:25;13.00;99.90
29363;DHT22;16349;53.672;10.014;2022-09-25T05:00:53;13.00;99.90
29363;DHT22;16349;53.672;10.014;2022-09-25T05:03:20;13.00;99.90
29363;DHT22;16349;53.672;10.014;2022-09-25T05:05:48;13.00;99.90
29363;DHT22;16349;53.672;10.014;2022-09-25T05:08:15;13.00;99.90
29363;DHT22;16349;53.672;10.014;2022-09-25T05:10:42;12.90;99.90
29363;DHT22;16349;53.672;10.014;2022-09-25T05:13:09;13.00;99.90
29363;DHT22;16349;53.672;10.014;2022-09-25T05:15:36;13.00;99.90
29363;DHT22;16349;53.672;10.014;2022-09-25T05:18:06;13.00;99.90
29363;DHT22;16349;53.672;10.014;2022-09-25T05:20:34;13.00;99.90
29363;DHT22;16349;53.672;10.014;2022-09-25T05:23:01;13.00;99.90
29363;DHT22;16349;53.672;10.014;2022-09-25T05:25:29;13.00;99.90
29363;DHT22;16349;53.672;10.014;2022-09-25T05:27:57;13.00;99.90
29363;DHT22;16349;53.672;10.014;2022-09-25T05:30:25;13.00;99.90
29363;DHT22;16349;53.672;10.014;2022-09-25T05:32:52;13.00;99.90
29363;DHT22;16349;53.672;10.014;2022-09-25T05:35:21;13.00;99.90
29363;DHT22;16349;53.672;10.014;2022-09-25T05:37:48;13.00;99.90
29363;DHT22;16349;53.672;10.014;2022-09-25T05:40:16;13.00;99.90
29363;DHT22;16349;53.672;10.014;2022-09-25T05:42:44;13.00;99.90
29363;DHT22;16349;53.672;10.014;2022-09-25T05:45:11;13.00;99.90
29363;DHT22;16349;53.672;10.014;2022-09-25T05:47:38;13.00;99.90
29363;DHT22;16349;53.672;10.014;2022-09-25T05:50:07;13.00;99.90
29363;DHT22;16349;53.672;10.014;2022-09-25T05:52:35;13.00;99.90
29363;DHT22;16349;53.672;10.014;2022-09-25T05:55:03;13.00;99.90
29363;DHT22;16349;53.672;10.014;2022-09-25T05:57:30;13.00;99.90
29363;DHT22;16349;53.672;10.014;2022-09-25T05:59:57;13.00;99.90
29363;DHT22;16349;53.672;10.014;2022-09-25T06:02:24;13.00;99.90
29363;DHT22;16349;53.672;10.014;2022-09-25T06:04:51;13.10;99.90
29363;DHT22;16349;53.672;10.014;2022-09-25T06:07:17;13.10;99.90
29363;DHT22;16349;53.672;10.014;2022-09-25T06:09:45;13.10;99.90
29363;DHT22;16349;53.672;10.014;2022-09-25T06:12:12;13.10;99.90
29363;DHT22;16349;53.672;10.014;2022-09-25T06:14:39;13.10;99.90
29363;DHT22;16349;53.672;10.014;2022-09-25T06:17:06;13.10;99.90
29363;DHT22;16349;53.672;10.014;2022-09-25T06:19:33;13.10;99.90
29363;DHT22;16349;53.672;10.014;2022-09-25T06:22:00;13.10;99.90
29363;DHT22;16349;53.672;10.014;2022-09-25T06:24:27;13.10;99.90
29363;DHT22;16349;53.672;10.014;2022-09-25T06:26:54;13.10;99.90
29363;DHT22;16349;53.672;10.014;2022-09-25T06:29:21;13.10;99.90
29363;DHT22;16349;53.672;10.014;2022-09-25T06:31:48;13.10;99.90
29363;DHT22;16349;53.672;10.014;2022-09-25T06:34:14;13.10;99.90
29363;DHT22;16349;53.672;10.014;2022-09-25T06:36:41;13.10;99.90
29363;DHT22;16349;53.672;10.014;2022-09-25T06:39:07;13.10;99.90
29363;DHT22;16349;53.672;10.014;2022-09-25T06:41:34;13.00;99.90
29363;DHT22;16349;53.672;10.014;2022-09-25T06:44:02;13.10;99.90
29363;DHT22;16349;53.672;10.014;2022-09-25T06:46:29;13.10;99.90
29363;DHT22;16349;53.672;10.014;2022-09-25T06:48:56;13.10;99.90
29363;DHT22;16349;53.672;10.014;2022-09-25T06:51:24;13.10;99.90
29363;DHT22;16349;53.672;10.014;2022-09-25T06:53:57;13.10;99.90
29363;DHT22;16349;53.672;10.014;2022-09-25T06:56:24;13.10;99.90
29363;DHT22;16349;53.672;10.014;2022-09-25T06:58:51;13.10;99.90
29363;DHT22;16349;53.672;10.014;2022-09-25T07:01:19;13.10;99.90
29363;DHT22;16349;53.672;10.014;2022-09-25T07:03:46;13.10;99.90
29363;DHT22;16349;53.672;10.014;2022-09-25T07:06:15;13.10;99.90
29363;DHT22;16349;53.672;10.014;2022-09-25T07:08:42;13.10;99.90
29363;DHT22;16349;53.672;10.014;2022-09-25T07:11:11;13.10;99.90
29363;DHT22;16349;53.672;10.014;2022-09-25T07:13:39;13.10;99.90
29363;DHT22;16349;53.672;10.014;2022-09-25T07:16:10;13.10;99.90
29363;DHT22;16349;53.672;10.014;2022-09-25T07:18:39;13.10;99.90
29363;DHT22;16349;53.672;10.014;2022-09-25T07:21:07;13.20;99.90
29363;DHT22;16349;53.672;10.014;2022-09-25T07:23:34;13.10;99.90
29363;DHT22;16349;53.672;10.014;2022-09-25T07:26:07;13.10;99.90
29363;DHT22;16349;53.672;10.014;2022-09-25T07:28:34;13.20;99.90
29363;DHT22;16349;53.672;10.014;2022-09-25T07:31:12;13.10;99.90
29363;DHT22;16349;53.672;10.014;2022-09-25T07:33:41;13.00;99.90
29363;DHT22;16349;53.672;10.014;2022-09-25T07:36:08;13.10;99.90
29363;DHT22;16349;53.672;10.014;2022-09-25T07:38:35;13.00;99.90
29363;DHT22;16349;53.672;10.014;2022-09-25T07:41:03;13.00;99.90
29363;DHT22;16349;53.672;10.014;2022-09-25T07:43:30;13.00;99.90
29363;DHT22;16349;53.672;10.014;2022-09-25T07:45:57;13.00;99.90
29363;DHT22;16349;53.672;10.014;2022-09-25T07:48:24;13.00;99.90
29363;DHT22;16349;53.672;10.014;2022-09-25T07:50:53;12.90;99.90
29363;DHT22;16349;53.672;10.014;2022-09-25T07:53:20;13.00;99.90
29363;DHT22;16349;53.672;10.014;2022-09-25T07:55:46;13.00;99.90
29363;DHT22;16349;53.672;10.014;2022-09-25T07:58:14;13.00;99.90
29363;DHT22;16349;53.672;10.014;2022-09-25T08:00:44;13.00;99.90
29363;DHT22;16349;53.672;10.014;2022-09-25T08:03:11;13.00;99.90
29363;DHT22;16349;53.672;10.014;2022-09-25T08:05:38;13.00;99.90
29363;DHT22;16349;53.672;10.014;2022-09-25T08:08:06;13.00;99.90
29363;DHT22;16349;53.672;10.014;2022-09-25T08:10:33;13.00;99.90
29363;DHT22;16349;53.672;10.014;2022-09-25T08:12:59;13.00;99.90
29363;DHT22;16349;53.672;10.014;2022-09-25T08:15:26;13.00;99.90
29363;DHT22;16349;53.672;10.014;2022-09-25T08:17:53;13.00;99.90
29363;DHT22;16349;53.672;10.014;2022-09-25T08:20:20;13.10;99.90
29363;DHT22;16349;53.672;10.014;2022-09-25T08:22:47;13.10;99.90
29363;DHT22;16349;53.672;10.014;2022-09-25T08:25:15;13.10;99.90
29363;DHT22;16349;53.672;10.014;2022-09-25T08:27:42;13.10;99.90
29363;DHT22;16349;53.672;10.014;2022-09-25T08:30:10;13.10;99.90
29363;DHT22;16349;53.672;10.014;2022-09-25T08:32:38;13.10;99.90
29363;DHT22;16349;53.672;10.014;2022-09-25T08:35:06;13.10;99.90
29363;DHT22;16349;53.672;10.014;2022-09-25T08:37:33;13.10;99.90
29363;DHT22;16349;53.672;10.014;2022-09-25T08:40:01;13.00;99.90
29363;DHT22;16349;53.672;10.014;2022-09-25T08:42:31;13.00;99.90
29363;DHT22;16349;53.672;10.014;2022-09-25T08:45:03;13.00;99.90
29363;DHT22;16349;53.672;10.014;2022-09-25T08:47:53;13.00;99.90
29363;DHT22;16349;53.672;10.014;2022-09-25T08:50:38;13.00;99.90
29363;DHT22;16349;53.672;10.014;2022-09-25T08:53:09;13.10;99.90
29363;DHT22;16349;53.672;10.014;2022-09-25T08:55:40;13.10;99.90
29363;DHT22;16349;53.672;10.014;2022-09-25T08:58:29;13.10;99.90
29363;DHT22;16349;53.672;10.014;2022-09-25T09:00:59;13.10;99.90
29363;DHT22;16349;53.672;10.014;2022-09-25T09:03:28;13.10;99.90
29363;DHT22;16349;53.672;10.014;2022-09-25T09:06:00;13.10;99.90
29363;DHT22;16349;53.672;10.014;2022-09-25T09:08:30;13.10;99.90
29363;DHT22;16349;53.672;10.014;2022-09-25T09:11:00;13.00;99.90
29363;DHT22;16349;53.672;10.014;2022-09-25T09:13:35;13.00;99.90
29363;DHT22;16349;53.672;10.014;2022-09-25T09:16:07;13.00;99.90
29363;DHT22;16349;53.672;10.014;2022-09-25T09:18:37;13.00;99.90
29363;DHT22;16349;53.672;10.014;2022-09-25T09:21:10;12.90;99.90
29363;DHT22;16349;53.672;10.014;2022-09-25T09:23:50;12.90;99.90
29363;DHT22;16349;53.672;10.014;2022-09-25T09:26:21;12.90;99.90
29363;DHT22;16349;53.672;10.014;2022-09-25T09:29:05;12.90;99.90
29363;DHT22;16349;53.672;10.014;2022-09-25T09:31:41;12.90;99.90
29363;DHT22;16349;53.672;10.014;2022-09-25T09:34:41;12.90;99.90
29363;DHT22;16349;53.672;10.014;2022-09-25T09:37:17;12.90;99.90
29363;DHT22;16349;53.672;10.014;2022-09-25T09:39:54;13.00;99.90
29363;DHT22;16349;53.672;10.014;2022-09-25T09:42:29;13.00;99.90
29363;DHT22;16349;53.672;10.014;2022-09-25T09:45:07;13.00;99.90
29363;DHT22;16349;53.672;10.014;2022-09-25T09:47:46;13.00;99.90
29363;DHT22;16349;53.672;10.014;2022-09-25T09:50:23;13.00;99.90
29363;DHT22;16349;53.672;10.014;2022-09-25T09:52:57;13.00;99.90
29363;DHT22;16349;53.672;10.014;2022-09-25T09:55:34;13.00;99.90
29363;DHT22;16349;53.672;10.014;2022-09-25T09:58:09;13.00;99.90
29363;DHT22;16349;53.672;10.014;2022-09-25T10:00:41;13.00;99.90
29363;DHT22;16349;53.672;10.014;2022-09-25T10:03:12;12.90;99.90
29363;DHT22;16349;53.672;10.014;2022-09-25T10:05:43;13.00;99.90
29363;DHT22;16349;53.672;10.014;2022-09-25T10:08:12;13.00;99.90
29363;DHT22;16349;53.672;10.014;2022-09-25T10:10:41;13.10;99.90
29363;DHT22;16349;53.672;10.014;2022-09-25T10:13:13;13.10;99.90
29363;DHT22;16349;53.672;10.014;2022-09-25T10:15:45;13.10;99.90
29363;DHT22;16349;53.672;10.014;2022-09-25T10:18:16;13.10;99.90
29363;DHT22;16349;53.672;10.014;2022-09-25T10:20:46;13.20;99.90
29363;DHT22;16349;53.672;10.014;2022-09-25T10:23:32;13.20;99.90
29363;DHT22;16349;53.672;10.014;2022-09-25T10:26:01;13.30;99.90
29363;DHT22;16349;53.672;10.014;2022-09-25T10:28:30;13.20;99.90
29363;DHT22;16349;53.672;10.014;2022-09-25T10:31:00;13.20;99.90
29363;DHT22;16349;53.672;10.014;2022-09-25T10:33:29;13.30;99.90
29363;DHT22;16349;53.672;10.014;2022-09-25T10:35:57;13.20;99.90
29363;DHT22;16349;53.672;10.014;2022-09-25T10:38:37;13.30;99.90
29363;DHT22;16349;53.672;10.014;2022-09-25T10:41:09;13.60;99.90
29363;DHT22;16349;53.672;10.014;2022-09-25T10:43:50;13.50;99.90
29363;DHT22;16349;53.672;10.014;2022-09-25T10:46:26;13.40;99.90
29363;DHT22;16349;53.672;10.014;2022-09-25T10:49:16;13.30;99.90
29363;DHT22;16349;53.672;10.014;2022-09-25T10:52:03;13.20;99.90
29363;DHT22;16349;53.672;10.014;2022-09-25T10:54:32;13.10;99.90
29363;DHT22;16349;53.672;10.014;2022-09-25T10:57:00;13.20;99.90
29363;DHT22;16349;53.672;10.014;2022-09-25T10:59:28;13.10;99.90
29363;DHT22;16349;53.672;10.014;2022-09-25T11:01:55;13.10;99.90
29363;DHT22;16349;53.672;10.014;2022-09-25T11:04:25;13.10;99.90
29363;DHT22;16349;53.672;10.014;2022-09-25T11:06:56;13.10;99.90
29363;DHT22;16349;53.672;10.014;2022-09-25T11:09:25;13.10;99.90
29363;DHT22;16349;53.672;10.014;2022-09-25T11:12:06;13.10;99.90
29363;DHT22;16349;53.672;10.014;2022-09-25T11:14:35;13.10;99.90
29363;DHT22;16349;53.672;10.014;2022-09-25T11:17:03;13.10;99.90
29363;DHT22;16349;53.672;10.014;2022-09-25T11:19:32;13.10;99.90
29363;DHT22;16349;53.672;10.014;2022-09-25T11:22:06;13.10;99.90
29363;DHT22;16349;53.672;10.014;2022-09-25T11:24:46;13.10;99.90
29363;DHT22;16349;53.672;10.014;2022-09-25T11:27:19;13.10;99.90
29363;DHT22;16349;53.672;10.014;2022-09-25T11:29:55;13.20;99.90
29363;DHT22;16349;53.672;10.014;2022-09-25T11:32:27;13.20;99.90
29363;DHT22;16349;53.672;10.014;2022-09-25T11:35:16;13.20;99.90
29363;DHT22;16349;53.672;10.014;2022-09-25T11:37:50;13.20;99.90
29363;DHT22;16349;53.672;10.014;2022-09-25T11:40:39;13.10;99.90
29363;DHT22;16349;53.672;10.014;2022-09-25T11:43:41;13.10;99.90
29363;DHT22;16349;53.672;10.014;2022-09-25T11:46:18;13.10;99.90
29363;DHT22;16349;53.672;10.014;2022-09-25T11:48:54;13.10;99.90
29363;DHT22;16349;53.672;10.014;2022-09-25T11:51:35;13.10;99.90
29363;DHT22;16349;53.672;10.014;2022-09-25T11:54:14;13.10;99.90
29363;DHT22;16349;53.672;10.014;2022-09-25T11:56:48;12.90;99.90
29363;DHT22;16349;53.672;10.014;2022-09-25T11:59:29;12.90;99.90
29363;DHT22;16349;53.672;10.014;2022-09-25T12:02:11;13.00;99.90
29363;DHT22;16349;53.672;10.014;2022-09-25T12:04:55;13.00;99.90
29363;DHT22;16349;53.672;10.014;2022-09-25T12:07:39;13.10;99.90
29363;DHT22;16349;53.672;10.014;2022-09-25T12:10:21;13.10;99.90
29363;DHT22;16349;53.672;10.014;2022-09-25T12:12:56;13.20;99.90
29363;DHT22;16349;53.672;10.014;2022-09-25T12:15:35;13.20;99.90
29363;DHT22;16349;53.672;10.014;2022-09-25T12:18:16;13.20;99.90
29363;DHT22;16349;53.672;10.014;2022-09-25T12:20:51;13.20;99.90
29363;DHT22;16349;53.672;10.014;2022-09-25T12:23:28;13.10;99.90
29363;DHT22;16349;53.672;10.014;2022-09-25T12:26:05;13.10;99.90
29363;DHT22;16349;53.672;10.014;2022-09-25T12:28:43;13.10;99.90
29363;DHT22;16349;53.672;10.014;2022-09-25T12:31:26;13.10;99.90
29363;DHT22;16349;53.672;10.014;2022-09-25T12:34:02;13.10;99.90
29363;DHT22;16349;53.672;10.014;2022-09-25T12:36:36;13.10;99.90
29363;DHT22;16349;53.672;10.014;2022-09-25T12:39:20;13.20;99.90
29363;DHT22;16349;53.672;10.014;2022-09-25T12:41:53;13.30;99.90
29363;DHT22;16349;53.672;10.014;2022-09-25T12:44:26;13.30;99.90
29363;DHT22;16349;53.672;10.014;2022-09-25T12:47:02;13.40;99.90
29363;DHT22;16349;53.672;10.014;2022-09-25T12:49:34;13.40;99.90
29363;DHT22;16349;53.672;10.014;2022-09-25T12:52:09;13.30;99.90
29363;DHT22;16349;53.672;10.014;2022-09-25T12:54:41;13.30;99.90
29363;DHT22;16349;53.672;10.014;2022-09-25T12:57:17;13.30;99.90
29363;DHT22;16349;53.672;10.014;2022-09-25T12:59:49;13.30;99.90
29363;DHT22;16349;53.672;10.014;2022-09-25T13:02:26;13.30;99.90
29363;DHT22;16349;53.672;10.014;2022-09-25T13:05:08;13.40;99.90
29363;DHT22;16349;53.672;10.014;2022-09-25T13:07:43;13.40;99.90
29363;DHT22;16349;53.672;10.014;2022-09-25T13:10:20;13.40;99.90
29363;DHT22;16349;53.672;10.014;2022-09-25T13:12:50;13.50;99.90
29363;DHT22;16349;53.672;10.014;2022-09-25T13:15:21;13.50;99.90
29363;DHT22;16349;53.672;10.014;2022-09-25T13:17:51;13.50;99.90
29363;DHT22;16349;53.672;10.014;2022-09-25T13:20:40;13.60;99.90
29363;DHT22;16349;53.672;10.014;2022-09-25T13:23:11;13.60;99.90
29363;DHT22;16349;53.672;10.014;2022-09-25T13:25:41;13.60;99.90
29363;DHT22;16349;53.672;10.014;2022-09-25T13:28:17;13.70;99.90
29363;DHT22;16349;53.672;10.014;2022-09-25T13:31:01;13.70;99.90
29363;DHT22;16349;53.672;10.014;2022-09-25T13:33:36;13.70;99.90
29363;DHT22;16349;53.672;10.014;2022-09-25T13:36:09;13.80;99.90
29363;DHT22;16349;53.672;10.014;2022-09-25T13:38:43;13.80;99.90
29363;DHT22;16349;53.672;10.014;2022-09-25T13:41:28;13.90;99.90
29363;DHT22;16349;53.672;10.014;2022-09-25T13:50:15;14.00;99.90
29363;DHT22;16349;53.672;10.014;2022-09-25T13:52:52;14.10;99.90
29363;DHT22;16349;53.672;10.014;2022-09-25T13:55:40;14.10;99.90
29363;DHT22;16349;53.672;10.014;2022-09-25T13:58:17;14.10;99.90
29363;DHT22;16349;53.672;10.014;2022-09-25T14:00:52;14.10;99.90
29363;DHT22;16349;53.672;10.014;2022-09-25T14:03:30;14.20;99.90
29363;DHT22;16349;53.672;10.014;2022-09-25T14:06:01;14.20;99.90
29363;DHT22;16349;53.672;10.014;2022-09-25T14:08:31;14.20;99.90
29363;DHT22;16349;53.672;10.014;2022-09-25T14:11:02;14.20;99.90
29363;DHT22;16349;53.672;10.014;2022-09-25T14:13:30;14.20;99.90
29363;DHT22;16349;53.672;10.014;2022-09-25T14:16:00;14.10;99.90
29363;DHT22;16349;53.672;10.014;2022-09-25T14:18:32;14.20;99.90
29363;DHT22;16349;53.672;10.014;2022-09-25T14:21:04;14.20;99.90
29363;DHT22;16349;53.672;10.014;2022-09-25T14:23:47;14.10;99.90
29363;DHT22;16349;53.672;10.014;2022-09-25T14:26:17;14.10;99.90
29363;DHT22;16349;53.672;10.014;2022-09-25T14:28:47;14.10;99.90
29363;DHT22;16349;53.672;10.014;2022-09-25T14:31:24;14.10;99.90
29363;DHT22;16349;53.672;10.014;2022-09-25T14:34:24;14.10;99.90
29363;DHT22;16349;53.672;10.014;2022-09-25T14:37:03;14.10;99.90
29363;DHT22;16349;53.672;10.014;2022-09-25T14:39:37;14.10;99.90
29363;DHT22;16349;53.672;10.014;2022-09-25T14:42:27;14.10;99.90
29363;DHT22;16349;53.672;10.014;2022-09-25T14:45:20;14.10;99.90
29363;DHT22;16349;53.672;10.014;2022-09-25T14:47:51;14.00;99.90
29363;DHT22;16349;53.672;10.014;2022-09-25T14:50:32;14.10;99.90
29363;DHT22;16349;53.672;10.014;2022-09-25T14:53:05;14.10;99.90
29363;DHT22;16349;53.672;10.014;2022-09-25T14:55:35;14.10;99.90
29363;DHT22;16349;53.672;10.014;2022-09-25T14:58:06;14.10;99.90
29363;DHT22;16349;53.672;10.014;2022-09-25T15:00:43;14.20;99.90
29363;DHT22;16349;53.672;10.014;2022-09-25T15:03:13;14.20;99.90
29363;DHT22;16349;53.672;10.014;2022-09-25T15:05:45;14.30;99.90
29363;DHT22;16349;53.672;10.014;2022-09-25T15:08:19;14.50;99.90
29363;DHT22;16349;53.672;10.014;2022-09-25T15:10:47;14.60;99.90
29363;DHT22;16349;53.672;10.014;2022-09-25T15:13:16;14.70;99.90
29363;DHT22;16349;53.672;10.014;2022-09-25T15:15:44;14.90;99.90
29363;DHT22;16349;53.672;10.014;2022-09-25T15:18:27;14.90;99.90
29363;DHT22;16349;53.672;10.014;2022-09-25T15:20:55;15.00;99.90
29363;DHT22;16349;53.672;10.014;2022-09-25T15:23:23;15.00;99.90
29363;DHT22;16349;53.672;10.014;2022-09-25T15:25:54;15.00;99.90
29363;DHT22;16349;53.672;10.014;2022-09-25T15:28:22;15.00;99.90
29363;DHT22;16349;53.672;10.014;2022-09-25T15:30:55;15.00;99.90
29363;DHT22;16349;53.672;10.014;2022-09-25T15:33:24;15.10;99.90
29363;DHT22;16349;53.672;10.014;2022-09-25T15:35:54;15.00;99.90
29363;DHT22;16349;53.672;10.014;2022-09-25T15:38:29;15.00;99.90
29363;DHT22;16349;53.672;10.014;2022-09-25T15:40:56;15.00;99.90
29363;DHT22;16349;53.672;10.014;2022-09-25T15:43:23;14.90;99.90
29363;DHT22;16349;53.672;10.014;2022-09-25T15:45:54;14.90;99.90
29363;DHT22;16349;53.672;10.014;2022-09-25T15:48:26;14.80;99.90
29363;DHT22;16349;53.672;10.014;2022-09-25T15:50:56;14.80;99.90
29363;DHT22;16349;53.672;10.014;2022-09-25T15:53:28;14.80;99.90